createdAt,value
2017-11-21T00:00:35.395Z,5.71
2017-11-21T00:05:41.609Z,5.82
2017-11-21T00:08:16.503Z,5.83
2017-11-21T00:10:45.537Z,5.87
2017-11-21T00:13:14.567Z,5.91
2017-11-21T00:15:43.997Z,5.93
2017-11-21T00:18:13.022Z,5.94
2017-11-21T00:20:43.024Z,5.97
2017-11-21T00:23:12.064Z,5.94
2017-11-21T00:25:41.116Z,5.94
2017-11-21T00:28:23.112Z,5.94
2017-11-21T00:30:52.148Z,5.98
2017-11-21T00:33:30.227Z,6.03
2017-11-21T00:35:59.262Z,5.97
2017-11-21T00:38:31.796Z,6.14
2017-11-21T00:41:00.862Z,6.11
2017-11-21T00:43:38.530Z,6.16
2017-11-21T00:46:15.572Z,6.12
2017-11-21T00:48:44.604Z,6.22
2017-11-21T00:51:13.677Z,6.18
2017-11-21T00:53:42.778Z,6.21
2017-11-21T00:56:11.802Z,6.21
2017-11-21T00:58:42.819Z,6.20
2017-11-21T01:01:15.391Z,6.11
2017-11-21T01:03:45.334Z,5.89
2017-11-21T01:06:15.359Z,5.70
2017-11-21T01:08:44.401Z,5.58
2017-11-21T01:11:16.841Z,5.50
2017-11-21T01:13:45.919Z,5.48
2017-11-21T01:16:15.852Z,5.34
2017-11-21T01:18:44.883Z,5.27
2017-11-21T01:21:15.865Z,5.28
2017-11-21T01:23:44.893Z,5.28
2017-11-21T01:26:23.065Z,5.32
2017-11-21T01:28:52.086Z,5.32
2017-11-21T01:31:25.555Z,5.29
2017-11-21T01:33:54.599Z,5.29
2017-11-21T01:36:23.659Z,5.33
2017-11-21T01:38:52.684Z,5.31
2017-11-21T01:41:22.749Z,5.37
2017-11-21T01:43:51.844Z,5.37
2017-11-21T01:46:28.864Z,5.35
2017-11-21T01:48:57.918Z,5.32
2017-11-21T01:51:27.872Z,5.34
2017-11-21T01:53:56.907Z,5.35
2017-11-21T01:56:56.067Z,5.28
2017-11-21T01:59:25.114Z,5.25
2017-11-21T02:01:54.146Z,5.24
2017-11-21T02:04:23.211Z,5.26
2017-11-21T02:06:52.263Z,5.26
2017-11-21T02:09:21.316Z,5.32
2017-11-21T02:11:50.363Z,5.32
2017-11-21T02:14:19.414Z,5.30
2017-11-21T02:16:49.381Z,5.31
2017-11-21T02:19:18.415Z,5.36
2017-11-21T02:21:47.484Z,5.29
2017-11-21T02:24:16.505Z,5.27
2017-11-21T02:26:45.541Z,5.22
2017-11-21T02:29:14.592Z,5.21
2017-11-21T02:31:44.527Z,5.23
2017-11-21T02:34:13.563Z,5.18
2017-11-21T02:36:42.592Z,5.21
2017-11-21T02:39:11.654Z,5.21
2017-11-21T02:41:40.684Z,5.18
2017-11-21T02:44:09.715Z,5.21
2017-11-21T02:46:38.753Z,5.21
2017-11-21T02:49:07.788Z,5.22
2017-11-21T02:51:37.803Z,5.26
2017-11-21T02:54:07.775Z,5.21
2017-11-21T02:56:36.814Z,5.13
2017-11-21T02:59:05.852Z,5.10
2017-11-21T03:01:43.099Z,5.08
2017-11-21T03:04:15.109Z,5.11
2017-11-21T03:06:53.786Z,5.08
2017-11-21T03:09:22.807Z,5.09
2017-11-21T03:11:51.851Z,5.06
2017-11-21T03:14:20.886Z,5.05
2017-11-21T03:16:51.929Z,5.12
2017-11-21T03:19:20.954Z,5.11
2017-11-21T03:24:49.918Z,5.11
2017-11-21T03:27:19.012Z,5.10
2017-11-21T03:29:48.044Z,5.15
2017-11-21T03:32:17.092Z,5.14
2017-11-21T03:37:21.407Z,5.16
2017-11-21T03:45:05.421Z,5.14
2017-11-21T03:50:14.144Z,5.06
2017-11-21T03:52:43.180Z,5.10
2017-11-21T03:55:13.180Z,5.07
2017-11-21T03:57:42.255Z,5.03
2017-11-21T04:00:11.323Z,5.09
2017-11-21T04:02:40.355Z,5.08
2017-11-21T04:05:09.407Z,5.06
2017-11-21T04:07:38.441Z,5.01
2017-11-21T04:12:43.135Z,4.98
2017-11-21T04:15:12.167Z,5.01
2017-11-21T04:17:41.220Z,4.94
2017-11-21T04:22:45.540Z,4.98
2017-11-21T04:25:14.585Z,4.95
2017-11-21T04:27:43.720Z,4.97
2017-11-21T04:30:16.027Z,4.95
2017-11-21T04:32:45.104Z,4.93
2017-11-21T04:35:14.166Z,4.95
2017-11-21T04:37:43.196Z,4.98
2017-11-21T04:40:13.152Z,4.94
2017-11-21T04:42:42.231Z,5.04
2017-11-21T04:47:52.426Z,5.09
2017-11-21T04:50:22.449Z,5.15
2017-11-21T04:52:51.480Z,5.14
2017-11-21T04:55:21.596Z,5.17
2017-11-21T04:57:50.635Z,5.10
2017-11-21T05:00:23.174Z,5.11
2017-11-21T05:02:52.215Z,5.22
2017-11-21T05:05:21.267Z,5.29
2017-11-21T05:07:52.191Z,5.31
2017-11-21T05:10:21.215Z,5.36
2017-11-21T05:12:50.259Z,5.35
2017-11-21T05:15:19.303Z,5.38
2017-11-21T05:17:48.322Z,5.41
2017-11-21T05:20:17.380Z,5.41
2017-11-21T05:22:46.402Z,5.48
2017-11-21T05:25:15.511Z,5.48
2017-11-21T05:27:50.791Z,5.53
2017-11-21T05:30:19.832Z,5.58
2017-11-21T05:33:06.684Z,5.63
2017-11-21T05:35:39.748Z,5.78
2017-11-21T05:38:08.778Z,5.77
2017-11-21T05:40:38.740Z,5.85
2017-11-21T05:43:07.787Z,5.89
2017-11-21T05:45:38.803Z,5.90
2017-11-21T05:48:07.847Z,5.89
2017-11-21T05:53:13.064Z,5.98
2017-11-21T05:55:42.133Z,5.99
2017-11-21T05:58:11.168Z,6.00
2017-11-21T06:00:40.204Z,6.02
2017-11-21T06:03:09.236Z,6.04
2017-11-21T06:05:38.278Z,6.01
2017-11-21T06:08:11.074Z,6.09
2017-11-21T06:10:40.109Z,6.08
2017-11-21T06:13:12.707Z,6.15
2017-11-21T06:15:45.578Z,6.13
2017-11-21T06:18:15.652Z,6.15
2017-11-21T06:20:44.658Z,6.09
2017-11-21T06:23:14.639Z,6.08
2017-11-21T06:25:43.743Z,6.12
2017-11-21T06:28:14.755Z,6.13
2017-11-21T06:30:45.444Z,6.18
2017-11-21T06:33:14.473Z,6.15
2017-11-21T06:35:43.642Z,6.14
2017-11-21T06:38:15.999Z,6.14
2017-11-21T06:40:45.067Z,6.11
2017-11-21T06:43:15.244Z,6.15
2017-11-21T06:45:47.585Z,6.13
2017-11-21T06:48:17.576Z,6.05
2017-11-21T06:50:46.624Z,5.99
2017-11-21T06:53:19.147Z,5.98
2017-11-21T07:00:59.663Z,6.02
2017-11-21T07:03:28.701Z,6.01
2017-11-21T07:06:06.039Z,6.11
2017-11-21T07:08:35.375Z,6.13
2017-11-21T07:11:04.431Z,6.12
2017-11-21T07:16:21.588Z,6.23
2017-11-21T07:18:50.610Z,6.22
2017-11-21T07:21:23.391Z,6.28
2017-11-21T07:23:52.442Z,6.34
2017-11-21T07:26:21.510Z,6.32
2017-11-21T07:28:50.548Z,6.36
2017-11-21T07:31:19.579Z,6.42
2017-11-21T07:34:00.304Z,6.48
2017-11-21T07:39:09.267Z,6.58
2017-11-21T07:41:52.040Z,6.60
2017-11-21T07:44:21.075Z,6.58
2017-11-21T07:46:50.140Z,6.61
2017-11-21T07:49:19.288Z,6.59
2017-11-21T07:51:53.298Z,6.65
2017-11-21T07:54:22.421Z,6.68
2017-11-21T07:56:55.415Z,6.74
2017-11-21T07:59:24.439Z,6.76
2017-11-21T08:01:53.466Z,6.79
2017-11-21T08:04:22.499Z,6.87
2017-11-21T08:06:52.479Z,6.94
2017-11-21T08:09:21.521Z,6.95
2017-11-21T08:11:54.579Z,7.01
2017-11-21T08:14:23.596Z,6.99
2017-11-21T08:16:52.674Z,7.06
2017-11-21T08:19:21.698Z,7.10
2017-11-21T08:21:50.761Z,7.10
2017-11-21T08:24:19.811Z,7.20
2017-11-21T08:29:24.024Z,7.33
2017-11-21T08:31:53.063Z,7.37
2017-11-21T08:34:22.151Z,7.44
2017-11-21T08:36:53.076Z,7.48
2017-11-21T08:39:22.107Z,7.50
2017-11-21T08:41:51.158Z,7.60
2017-11-21T08:44:20.167Z,7.63
2017-11-21T08:46:54.550Z,7.60
2017-11-21T08:49:23.580Z,7.47
2017-11-21T08:51:52.617Z,7.35
2017-11-21T08:54:21.653Z,7.23
2017-11-21T08:59:26.710Z,7.29
2017-11-21T09:01:55.735Z,7.41
2017-11-21T09:04:24.781Z,7.48
2017-11-21T09:06:55.731Z,7.60
2017-11-21T09:09:24.788Z,7.72
2017-11-21T09:11:53.854Z,7.84
2017-11-21T09:14:22.883Z,7.75
2017-11-21T09:16:55.646Z,7.72
2017-11-21T09:19:24.684Z,7.77
2017-11-21T09:24:29.924Z,8.13
2017-11-21T09:26:59.922Z,8.25
2017-11-21T09:29:30.947Z,8.31
2017-11-21T09:32:01.071Z,8.30
2017-11-21T09:34:34.262Z,8.14
2017-11-21T09:37:03.313Z,8.08
2017-11-21T09:39:36.964Z,7.82
2017-11-21T09:42:06.022Z,7.62
2017-11-21T09:44:35.067Z,7.51
2017-11-21T09:47:05.142Z,7.44
2017-11-21T09:49:34.220Z,7.38
2017-11-21T09:52:03.249Z,7.36
2017-11-21T09:54:33.771Z,7.32
2017-11-21T09:57:02.810Z,7.35
2017-11-21T09:59:37.649Z,7.36
2017-11-21T10:02:06.651Z,7.32
2017-11-21T10:04:35.852Z,7.40
2017-11-21T10:07:09.327Z,7.56
2017-11-21T10:09:38.403Z,7.61
2017-11-21T10:12:09.307Z,7.80
2017-11-21T10:14:38.339Z,7.89
2017-11-21T10:17:09.324Z,8.05
2017-11-21T10:19:45.436Z,8.11
2017-11-21T10:22:15.299Z,8.13
2017-11-21T10:24:50.028Z,8.21
2017-11-21T10:27:19.054Z,8.28
2017-11-21T10:29:56.876Z,8.40
2017-11-21T10:32:26.795Z,8.56
2017-11-21T10:35:05.611Z,8.69
2017-11-21T10:40:09.849Z,9.02
2017-11-21T10:42:39.831Z,9.20
2017-11-21T10:45:08.884Z,9.29
2017-11-21T10:52:49.853Z,9.47
2017-11-21T10:55:18.891Z,9.77
2017-11-21T10:57:47.936Z,9.86
2017-11-21T11:00:17.887Z,9.88
2017-11-21T11:02:46.919Z,9.94
2017-11-21T11:05:16.415Z,9.82
2017-11-21T11:07:50.571Z,9.66
2017-11-21T11:10:19.642Z,9.61
2017-11-21T11:12:48.662Z,9.65
2017-11-21T11:15:17.696Z,9.67
2017-11-21T11:17:47.691Z,9.61
2017-11-21T11:20:16.712Z,9.42
2017-11-21T11:22:45.759Z,9.22
2017-11-21T11:25:15.515Z,9.04
2017-11-21T11:27:51.979Z,8.90
2017-11-21T11:30:21.025Z,8.92
2017-11-21T11:32:51.994Z,8.96
2017-11-21T11:35:21.028Z,8.93
2017-11-21T11:37:53.651Z,8.85
2017-11-21T11:40:25.701Z,8.75
2017-11-21T11:42:54.739Z,8.73
2017-11-21T11:45:23.779Z,8.65
2017-11-21T11:48:02.875Z,8.64
2017-11-21T11:50:45.548Z,8.62
2017-11-21T11:53:15.369Z,8.61
2017-11-21T11:55:45.331Z,8.59
2017-11-21T11:58:15.484Z,8.57
2017-11-21T12:00:45.477Z,8.42
2017-11-21T12:03:15.553Z,8.34
2017-11-21T12:05:59.423Z,8.30
2017-11-21T12:08:37.111Z,8.33
2017-11-21T12:11:10.911Z,8.46
2017-11-21T12:16:21.134Z,8.30
2017-11-21T12:18:53.957Z,8.27
2017-11-21T12:21:22.976Z,8.29
2017-11-21T12:24:09.210Z,8.35
2017-11-21T12:27:09.840Z,8.34
2017-11-21T12:29:39.819Z,8.30
2017-11-21T12:32:09.815Z,8.19
2017-11-21T12:35:03.984Z,8.09
2017-11-21T12:40:08.335Z,8.01
2017-11-21T12:43:08.343Z,7.99
2017-11-21T12:45:37.392Z,7.96
2017-11-21T12:50:49.083Z,7.93
2017-11-21T12:53:18.135Z,8.00
2017-11-21T12:58:22.424Z,8.00
2017-11-21T13:00:52.523Z,8.00
2017-11-21T13:03:21.556Z,7.99
2017-11-21T13:08:26.787Z,8.11
2017-11-21T13:10:59.577Z,8.16
2017-11-21T13:13:29.581Z,8.28
2017-11-21T13:16:06.183Z,8.31
2017-11-21T13:18:36.177Z,8.30
2017-11-21T13:21:06.194Z,8.40
2017-11-21T13:23:38.572Z,8.41
2017-11-21T13:26:08.695Z,8.52
2017-11-21T13:28:49.155Z,8.63
2017-11-21T13:31:18.182Z,8.77
2017-11-21T13:36:22.442Z,9.25
2017-11-21T13:38:51.474Z,9.43
2017-11-21T13:41:20.490Z,9.52
2017-11-21T13:43:51.531Z,9.78
2017-11-21T13:46:20.572Z,9.87
2017-11-21T13:48:49.620Z,9.90
2017-11-21T13:51:23.553Z,10.06
2017-11-21T13:53:52.956Z,10.37
2017-11-21T13:56:21.991Z,10.37
2017-11-21T13:58:54.342Z,10.30
2017-11-21T14:01:23.369Z,10.28
2017-11-21T14:03:58.558Z,10.18
2017-11-21T14:06:27.590Z,10.06
2017-11-21T14:08:58.699Z,10.03
2017-11-21T14:11:27.963Z,10.07
2017-11-21T14:13:58.240Z,10.10
2017-11-21T14:16:27.270Z,10.01
2017-11-21T14:18:59.282Z,10.06
2017-11-21T14:21:28.320Z,10.07
2017-11-21T14:26:32.615Z,10.14
2017-11-21T14:29:01.652Z,10.09
2017-11-21T14:31:30.686Z,9.81
2017-11-21T14:34:03.095Z,9.64
2017-11-21T14:36:33.115Z,9.64
2017-11-21T14:41:47.472Z,9.88
2017-11-21T14:44:16.624Z,9.95
2017-11-21T14:49:20.961Z,10.14
2017-11-21T14:51:58.885Z,10.12
2017-11-21T14:54:27.944Z,10.12
2017-11-21T14:56:58.637Z,10.09
2017-11-21T14:59:27.670Z,10.26
2017-11-21T15:01:59.601Z,10.25
2017-11-21T15:04:28.675Z,10.30
2017-11-21T15:07:01.429Z,10.41
2017-11-21T15:09:31.442Z,10.30
2017-11-21T15:12:05.947Z,10.31
2017-11-21T15:14:41.654Z,10.29
2017-11-21T15:17:10.671Z,10.31
2017-11-21T15:22:15.971Z,10.38
2017-11-21T15:24:50.792Z,10.37
2017-11-21T15:27:19.893Z,10.27
2017-11-21T15:29:54.520Z,10.34
2017-11-21T15:32:23.560Z,10.46
2017-11-21T15:34:52.622Z,10.39
2017-11-21T15:37:21.654Z,10.36
2017-11-21T15:39:50.724Z,10.47
2017-11-21T15:42:19.773Z,10.58
2017-11-21T15:44:48.817Z,10.65
2017-11-21T15:47:17.859Z,10.62
2017-11-21T15:49:47.876Z,10.68
2017-11-21T15:52:17.078Z,10.59
2017-11-21T15:54:57.395Z,10.60
2017-11-21T15:57:26.436Z,10.61
2017-11-21T16:00:01.143Z,10.60
2017-11-21T16:05:08.423Z,10.67
2017-11-21T16:07:42.354Z,10.66
2017-11-21T16:10:11.443Z,10.60
2017-11-21T16:12:40.507Z,10.63
2017-11-21T16:15:09.560Z,10.55
2017-11-21T16:17:39.549Z,10.55
2017-11-21T16:20:08.596Z,10.52
2017-11-21T16:22:39.736Z,10.53
2017-11-21T16:25:09.691Z,10.53
2017-11-21T16:27:38.915Z,10.41
2017-11-21T16:30:08.044Z,10.36
2017-11-21T16:35:12.319Z,10.39
2017-11-21T16:37:41.511Z,10.27
2017-11-21T16:40:10.521Z,10.17
2017-11-21T16:42:39.597Z,10.15
2017-11-21T16:45:08.652Z,10.13
2017-11-21T16:47:39.708Z,10.19
2017-11-21T16:50:09.639Z,10.18
2017-11-21T16:55:14.073Z,10.17
2017-11-21T16:57:43.125Z,10.13
2017-11-21T17:00:12.303Z,10.04
2017-11-21T17:02:47.582Z,10.07
2017-11-21T17:05:16.618Z,10.09
2017-11-21T17:07:45.659Z,10.30
2017-11-21T17:10:14.723Z,10.31
2017-11-21T17:12:44.813Z,10.26
2017-11-21T17:15:13.864Z,10.25
2017-11-21T17:17:42.928Z,10.27
2017-11-21T17:20:17.786Z,10.31
2017-11-21T17:25:22.009Z,10.30
2017-11-21T17:30:26.239Z,10.22
2017-11-21T17:35:32.455Z,10.21
2017-11-21T17:38:05.389Z,10.14
2017-11-21T17:40:34.736Z,10.07
2017-11-21T17:43:03.813Z,10.08
2017-11-21T17:45:32.885Z,10.16
2017-11-21T17:48:03.930Z,10.22
2017-11-21T17:50:32.995Z,10.17
2017-11-21T17:55:37.290Z,10.06
2017-11-21T17:58:07.280Z,10.12
2017-11-21T18:00:36.338Z,10.09
2017-11-21T18:03:09.875Z,10.15
2017-11-21T18:05:38.897Z,10.14
2017-11-21T18:08:07.966Z,10.12
2017-11-21T18:10:37.003Z,10.20
2017-11-21T18:13:08.123Z,10.11
2017-11-21T18:15:37.170Z,9.94
2017-11-21T18:18:08.157Z,9.89
2017-11-21T18:20:37.188Z,9.93
2017-11-21T18:23:11.383Z,9.98
2017-11-21T18:25:40.420Z,9.88
2017-11-21T18:30:44.656Z,9.73
2017-11-21T18:33:13.740Z,9.77
2017-11-21T18:35:42.788Z,9.69
2017-11-21T18:40:47.113Z,9.71
2017-11-21T18:45:52.246Z,9.65
2017-11-21T18:48:24.683Z,9.49
2017-11-21T18:50:57.794Z,9.24
2017-11-21T18:53:26.952Z,9.14
2017-11-21T18:55:57.121Z,9.18
2017-11-21T18:58:27.185Z,9.20
2017-11-21T19:00:56.289Z,9.22
2017-11-21T19:03:25.459Z,9.24
2017-11-21T19:05:54.493Z,9.22
2017-11-21T19:08:23.595Z,9.22
2017-11-21T19:10:56.087Z,9.30
2017-11-21T19:13:25.534Z,9.40
2017-11-21T19:15:55.620Z,9.48
2017-11-21T19:21:00.499Z,9.43
2017-11-21T19:23:29.507Z,9.61
2017-11-21T19:25:58.578Z,9.57
2017-11-21T19:28:29.792Z,9.53
2017-11-21T19:30:58.854Z,9.57
2017-11-21T19:33:27.962Z,9.58
2017-11-21T19:35:57.039Z,9.48
2017-11-21T19:38:27.105Z,9.38
2017-11-21T19:41:01.762Z,9.25
2017-11-21T19:46:17.449Z,9.11
2017-11-21T19:48:46.485Z,9.09
2017-11-21T19:51:16.688Z,9.18
2017-11-21T19:53:45.784Z,9.26
2017-11-21T19:56:14.821Z,9.15
2017-11-21T19:58:44.030Z,9.07
2017-11-21T20:01:13.974Z,9.00
2017-11-21T20:03:43.048Z,8.85
2017-11-21T20:06:12.091Z,8.77
2017-11-21T20:08:41.150Z,8.78
2017-11-21T20:11:10.172Z,8.76
2017-11-21T20:13:39.210Z,8.74
2017-11-21T20:16:08.255Z,8.78
2017-11-21T20:18:37.291Z,8.98
2017-11-21T20:21:06.356Z,9.05
2017-11-21T20:23:35.416Z,8.99
2017-11-21T20:26:04.577Z,8.92
2017-11-21T20:28:33.607Z,9.07
2017-11-21T20:31:02.646Z,9.07
2017-11-21T20:33:32.610Z,8.87
2017-11-21T20:38:36.905Z,8.65
2017-11-21T20:41:06.863Z,8.57
2017-11-21T20:43:36.817Z,8.62
2017-11-21T20:46:06.123Z,8.55
2017-11-21T20:48:35.155Z,8.58
2017-11-21T20:51:12.094Z,8.63
2017-11-21T20:53:41.135Z,8.54
2017-11-21T20:56:14.183Z,8.62
2017-11-21T20:58:43.215Z,8.66
2017-11-21T21:01:12.247Z,8.72
2017-11-21T21:03:41.288Z,8.77
2017-11-21T21:06:11.506Z,8.73
2017-11-21T21:08:40.606Z,8.71
2017-11-21T21:11:09.627Z,8.64
2017-11-21T21:16:17.910Z,8.82
2017-11-21T21:18:46.953Z,8.84
2017-11-21T21:23:51.192Z,8.75
2017-11-21T21:26:20.268Z,8.67
2017-11-21T21:28:49.321Z,8.60
2017-11-21T21:31:24.871Z,8.57
2017-11-21T21:33:53.987Z,8.53
2017-11-21T21:36:23.029Z,8.46
2017-11-21T21:38:52.077Z,8.43
2017-11-21T21:41:21.242Z,8.32
2017-11-21T21:43:50.595Z,8.15
2017-11-21T21:46:19.847Z,7.88
2017-11-21T21:48:48.916Z,7.83
2017-11-21T21:51:19.594Z,7.76
2017-11-21T21:53:48.667Z,7.61
2017-11-21T21:56:17.894Z,7.69
2017-11-21T21:58:46.920Z,7.62
2017-11-21T22:01:17.887Z,7.83
2017-11-21T22:03:46.937Z,7.85
2017-11-21T22:06:15.973Z,7.77
2017-11-21T22:08:45.032Z,7.84
2017-11-21T22:11:15.975Z,7.91
2017-11-21T22:13:49.381Z,8.01
2017-11-21T22:18:59.619Z,8.18
2017-11-21T22:21:29.539Z,8.22
2017-11-21T22:23:59.459Z,8.34
2017-11-21T22:26:32.562Z,8.39
2017-11-21T22:29:01.699Z,8.44
2017-11-21T22:31:31.738Z,8.45
2017-11-21T22:34:00.767Z,8.50
2017-11-21T22:36:29.802Z,8.44
2017-11-21T22:39:02.619Z,8.38
2017-11-21T22:41:32.580Z,8.27
2017-11-21T22:46:37.008Z,7.90
2017-11-21T22:49:06.042Z,7.64
2017-11-21T22:51:35.075Z,7.46
2017-11-21T22:54:04.110Z,7.45
2017-11-21T22:56:33.160Z,7.36
2017-11-21T22:59:02.197Z,7.31
2017-11-21T23:01:31.239Z,7.28
2017-11-21T23:04:00.311Z,7.12
2017-11-21T23:09:05.536Z,6.94
2017-11-21T23:11:34.564Z,7.03
2017-11-21T23:14:04.500Z,6.95
2017-11-21T23:16:36.994Z,6.99
2017-11-21T23:19:06.012Z,7.04
2017-11-21T23:21:35.041Z,7.04
2017-11-21T23:24:04.059Z,6.99
2017-11-21T23:29:08.358Z,6.92
2017-11-21T23:31:39.403Z,6.88
2017-11-21T23:34:12.217Z,6.99
2017-11-21T23:36:47.795Z,6.99
2017-11-21T23:39:16.859Z,7.03
2017-11-21T23:41:55.223Z,6.97
2017-11-21T23:44:24.250Z,6.98
2017-11-21T23:46:54.312Z,7.05
2017-11-21T23:49:23.353Z,7.08
2017-11-21T23:51:52.379Z,6.99
2017-11-21T23:54:21.475Z,6.91
2017-11-21T23:56:50.610Z,6.78
2017-11-21T23:59:19.630Z,6.66
